createdAt,value
2018-05-23T00:00:51.066Z,95041.95
2018-05-23T00:03:19.492Z,95038.73
2018-05-23T00:05:47.979Z,95041.77
2018-05-23T00:08:16.494Z,95041.29
2018-05-23T00:10:44.856Z,95042.36
2018-05-23T00:13:13.200Z,95039.52
2018-05-23T00:15:41.684Z,95043.64
2018-05-23T00:18:10.037Z,95040.30
2018-05-23T00:20:38.474Z,95040.70
2018-05-23T00:23:06.855Z,95040.25
2018-05-23T00:25:35.259Z,95047.56
2018-05-23T00:28:03.630Z,95045.84
2018-05-23T00:30:31.992Z,95050.83
2018-05-23T00:33:00.413Z,95055.32
2018-05-23T00:35:28.797Z,95052.06
2018-05-23T00:37:57.165Z,95044.30
2018-05-23T00:40:25.509Z,95047.00
2018-05-23T00:42:53.993Z,95044.48
2018-05-23T00:45:22.370Z,95050.88
2018-05-23T00:47:50.785Z,95039.84
2018-05-23T00:50:19.284Z,95044.64
2018-05-23T00:52:47.597Z,95046.73
2018-05-23T00:55:27.745Z,95051.34
2018-05-23T00:57:56.185Z,95046.36
2018-05-23T01:00:24.568Z,95058.12
2018-05-23T01:02:52.971Z,95058.36
2018-05-23T01:05:21.430Z,95054.52
2018-05-23T01:07:49.888Z,95059.42
2018-05-23T01:10:18.248Z,95064.83
2018-05-23T01:12:46.618Z,95064.08
2018-05-23T01:15:14.989Z,95063.06
2018-05-23T01:17:43.459Z,95065.60
2018-05-23T01:20:11.820Z,95063.25
2018-05-23T01:22:40.208Z,95066.22
2018-05-23T01:25:08.730Z,95070.56
2018-05-23T01:27:37.124Z,95066.01
2018-05-23T01:30:05.544Z,95066.49
2018-05-23T01:32:33.964Z,95067.80
2018-05-23T01:35:02.388Z,95072.31
2018-05-23T01:37:30.863Z,95072.55
2018-05-23T01:39:59.274Z,95069.84
2018-05-23T01:42:27.682Z,95069.39
2018-05-23T01:44:56.105Z,95074.16
2018-05-23T01:47:24.477Z,95076.04
2018-05-23T01:49:52.880Z,95073.55
2018-05-23T01:52:21.275Z,95079.03
2018-05-23T01:54:49.673Z,95072.90
2018-05-23T01:57:18.096Z,95068.11
2018-05-23T01:59:46.529Z,95076.33
2018-05-23T02:02:15.029Z,95075.66
2018-05-23T02:04:43.443Z,95079.68
2018-05-23T02:07:11.805Z,95078.46
2018-05-23T02:09:40.172Z,95076.95
2018-05-23T02:12:08.569Z,95084.30
2018-05-23T02:14:37.073Z,95085.19
2018-05-23T02:17:05.491Z,95084.23
2018-05-23T02:19:33.847Z,95081.64
2018-05-23T02:22:02.269Z,95073.80
2018-05-23T02:24:30.652Z,95079.79
2018-05-23T02:26:59.076Z,95077.53
2018-05-23T02:29:27.438Z,95071.71
2018-05-23T02:31:55.813Z,95075.34
2018-05-23T02:34:24.282Z,95077.58
2018-05-23T02:36:52.659Z,95078.78
2018-05-23T02:39:21.174Z,95086.80
2018-05-23T02:41:49.538Z,95076.66
2018-05-23T02:44:17.945Z,95076.25
2018-05-23T02:46:46.320Z,95081.05
2018-05-23T02:49:14.695Z,95083.70
2018-05-23T02:51:43.056Z,95077.69
2018-05-23T02:54:11.481Z,95079.21
2018-05-23T02:56:39.863Z,95087.45
2018-05-23T02:59:08.270Z,95086.72
2018-05-23T03:01:36.648Z,95089.53
2018-05-23T03:04:05.028Z,95092.78
2018-05-23T03:06:33.397Z,95091.33
2018-05-23T03:09:01.760Z,95090.08
2018-05-23T03:11:30.114Z,95095.36
2018-05-23T03:13:58.475Z,95094.34
2018-05-23T03:16:26.859Z,95098.67
2018-05-23T03:18:55.207Z,95093.50
2018-05-23T03:21:23.665Z,95096.61
2018-05-23T03:23:52.023Z,95089.08
2018-05-23T03:26:20.564Z,95098.89
2018-05-23T03:28:48.993Z,95098.64
2018-05-23T03:31:17.368Z,95105.71
2018-05-23T03:33:45.746Z,95099.92
2018-05-23T03:36:14.133Z,95097.66
2018-05-23T03:38:42.574Z,95105.77
2018-05-23T03:41:11.057Z,95106.51
2018-05-23T03:43:39.445Z,95106.22
2018-05-23T03:46:07.857Z,95104.81
2018-05-23T03:48:36.253Z,95105.41
2018-05-23T03:51:04.652Z,95116.70
2018-05-23T03:53:33.008Z,95114.80
2018-05-23T03:56:01.438Z,95120.43
2018-05-23T03:58:29.918Z,95117.52
2018-05-23T04:01:10.009Z,95120.38
2018-05-23T04:03:51.119Z,95125.00
2018-05-23T04:09:21.348Z,95133.75
2018-05-23T04:11:49.789Z,95128.75
2018-05-23T04:14:18.312Z,95126.67
2018-05-23T04:16:46.719Z,95131.52
2018-05-23T04:19:15.183Z,95130.56
2018-05-23T04:21:43.636Z,95139.36
2018-05-23T04:24:11.979Z,95134.89
2018-05-23T04:26:40.490Z,95142.92
2018-05-23T04:29:08.966Z,95142.25
2018-05-23T04:31:37.383Z,95143.09
2018-05-23T04:34:05.752Z,95144.00
2018-05-23T04:36:34.141Z,95147.33
2018-05-23T04:39:02.676Z,95142.28
2018-05-23T04:41:31.169Z,95145.33
2018-05-23T04:43:59.552Z,95146.63
2018-05-23T04:46:28.016Z,95156.94
2018-05-23T04:48:56.489Z,95159.41
2018-05-23T04:51:24.905Z,95160.64
2018-05-23T04:53:53.251Z,95166.80
2018-05-23T04:56:21.791Z,95165.34
2018-05-23T04:58:50.293Z,95164.83
2018-05-23T05:01:18.856Z,95169.36
2018-05-23T05:03:47.339Z,95177.78
2018-05-23T05:06:15.747Z,95176.52
2018-05-23T05:08:44.148Z,95182.37
2018-05-23T05:11:12.614Z,95179.13
2018-05-23T05:13:41.045Z,95182.84
2018-05-23T05:16:09.450Z,95191.35
2018-05-23T05:18:37.926Z,95192.15
2018-05-23T05:21:06.340Z,95198.12
2018-05-23T05:23:34.767Z,95204.99
2018-05-23T05:26:03.480Z,95207.84
2018-05-23T05:28:31.882Z,95215.41
2018-05-23T05:31:00.356Z,95215.23
2018-05-23T05:33:28.858Z,95215.82
2018-05-23T05:35:57.286Z,95221.19
2018-05-23T05:38:25.668Z,95226.33
2018-05-23T05:40:54.190Z,95233.23
2018-05-23T05:43:22.892Z,95230.03
2018-05-23T05:45:51.262Z,95232.73
2018-05-23T05:48:19.671Z,95235.23
2018-05-23T05:50:48.085Z,95234.36
2018-05-23T05:53:17.447Z,95236.32
2018-05-23T05:55:45.810Z,95246.29
2018-05-23T05:58:14.241Z,95246.75
2018-05-23T06:00:42.724Z,95242.27
2018-05-23T06:03:11.431Z,95249.70
2018-05-23T06:05:39.942Z,95256.86
2018-05-23T06:08:08.318Z,95260.97
2018-05-23T06:10:36.843Z,95259.61
2018-05-23T06:13:05.280Z,95258.91
2018-05-23T06:15:34.688Z,95258.14
2018-05-23T06:18:03.127Z,95258.98
2018-05-23T06:20:31.634Z,95267.30
2018-05-23T06:23:01.166Z,95272.48
2018-05-23T06:25:29.595Z,95269.88
2018-05-23T06:27:58.114Z,95274.02
2018-05-23T06:30:26.759Z,95274.05
2018-05-23T06:32:55.077Z,95274.09
2018-05-23T06:35:23.629Z,95275.48
2018-05-23T06:37:52.301Z,95277.52
2018-05-23T06:40:20.838Z,95278.11
2018-05-23T06:42:49.200Z,95284.14
2018-05-23T06:45:17.586Z,95278.63
2018-05-23T06:47:46.010Z,95282.93
2018-05-23T06:50:14.415Z,95288.42
2018-05-23T06:52:42.801Z,95290.23
2018-05-23T06:55:11.203Z,95291.50
2018-05-23T06:57:39.705Z,95288.64
2018-05-23T07:00:08.147Z,95297.38
2018-05-23T07:02:36.598Z,95296.56
2018-05-23T07:05:05.022Z,95310.41
2018-05-23T07:07:33.389Z,95305.76
2018-05-23T07:10:01.844Z,95308.52
2018-05-23T07:12:30.235Z,95308.31
2018-05-23T07:14:58.657Z,95313.69
2018-05-23T07:17:27.099Z,95314.77
2018-05-23T07:19:55.494Z,95309.09
2018-05-23T07:22:24.035Z,95310.07
2018-05-23T07:24:52.463Z,95312.27
2018-05-23T07:27:20.866Z,95318.44
2018-05-23T07:29:49.270Z,95322.47
2018-05-23T07:32:17.779Z,95313.70
2018-05-23T07:34:46.246Z,95315.63
2018-05-23T07:37:14.747Z,95318.27
2018-05-23T07:39:43.178Z,95318.52
2018-05-23T07:42:11.639Z,95327.81
2018-05-23T07:44:40.143Z,95322.87
2018-05-23T07:47:08.637Z,95327.91
2018-05-23T07:49:37.226Z,95328.37
2018-05-23T07:52:06.665Z,95332.14
2018-05-23T07:54:35.169Z,95326.94
2018-05-23T07:57:03.711Z,95331.98
2018-05-23T07:59:32.351Z,95335.72
2018-05-23T08:02:00.785Z,95330.18
2018-05-23T08:04:29.271Z,95344.23
2018-05-23T08:06:57.822Z,95333.53
2018-05-23T08:09:26.294Z,95337.37
2018-05-23T08:11:54.930Z,95342.84
2018-05-23T08:14:23.350Z,95350.88
2018-05-23T08:16:51.755Z,95349.17
2018-05-23T08:19:20.198Z,95355.93
2018-05-23T08:21:48.567Z,95358.80
2018-05-23T08:24:17.183Z,95358.03
2018-05-23T08:26:45.599Z,95357.36
2018-05-23T08:29:14.133Z,95363.55
2018-05-23T08:31:42.789Z,95364.34
2018-05-23T08:34:11.181Z,95374.09
2018-05-23T08:36:39.656Z,95364.25
2018-05-23T08:39:08.152Z,95368.78
2018-05-23T08:41:36.534Z,95374.98
2018-05-23T08:44:04.953Z,95372.31
2018-05-23T08:46:33.537Z,95377.22
2018-05-23T08:49:01.966Z,95381.38
2018-05-23T08:51:30.536Z,95387.41
2018-05-23T08:53:59.055Z,95382.27
2018-05-23T08:56:27.503Z,95381.04
2018-05-23T08:58:55.988Z,95390.65
2018-05-23T09:01:24.486Z,95386.52
2018-05-23T09:03:54.213Z,95394.52
2018-05-23T09:06:22.819Z,95390.63
2018-05-23T09:08:51.208Z,95391.77
2018-05-23T09:11:19.606Z,95401.71
2018-05-23T09:13:48.201Z,95387.44
2018-05-23T09:16:16.573Z,95400.27
2018-05-23T09:18:44.986Z,95395.85
2018-05-23T09:21:13.449Z,95396.06
2018-05-23T09:23:42.042Z,95398.55
2018-05-23T09:26:12.483Z,95395.39
2018-05-23T09:28:40.988Z,95404.64
2018-05-23T09:31:09.522Z,95402.80
2018-05-23T09:33:38.084Z,95406.86
2018-05-23T09:36:06.681Z,95404.30
2018-05-23T09:38:35.318Z,95407.38
2018-05-23T09:41:03.903Z,95413.09
2018-05-23T09:43:32.431Z,95418.04
2018-05-23T09:46:00.895Z,95418.41
2018-05-23T09:48:29.413Z,95419.16
2018-05-23T09:50:57.906Z,95416.78
2018-05-23T09:53:26.340Z,95422.45
2018-05-23T09:55:54.925Z,95422.84
2018-05-23T09:58:23.374Z,95424.11
2018-05-23T10:00:51.872Z,95424.88
2018-05-23T10:03:20.400Z,95428.26
2018-05-23T10:05:49.038Z,95427.04
2018-05-23T10:08:18.655Z,95428.81
2018-05-23T10:10:47.274Z,95436.70
2018-05-23T10:13:16.063Z,95437.41
2018-05-23T10:15:44.619Z,95438.29
2018-05-23T10:18:13.262Z,95435.52
2018-05-23T10:20:41.803Z,95439.28
2018-05-23T10:23:10.476Z,95442.09
2018-05-23T10:25:39.046Z,95443.70
2018-05-23T10:28:07.839Z,95441.92
2018-05-23T10:30:36.393Z,95446.22
2018-05-23T10:33:04.958Z,95445.94
2018-05-23T10:35:33.391Z,95449.83
2018-05-23T10:38:02.897Z,95446.25
2018-05-23T10:40:31.524Z,95449.63
2018-05-23T10:43:00.007Z,95445.58
2018-05-23T10:45:28.613Z,95450.09
2018-05-23T10:47:57.200Z,95456.43
2018-05-23T10:50:25.662Z,95452.63
2018-05-23T10:52:54.070Z,95448.52
2018-05-23T10:55:22.709Z,95454.52
2018-05-23T10:57:51.249Z,95452.79
2018-05-23T11:00:19.800Z,95451.75
2018-05-23T11:02:49.121Z,95457.08
2018-05-23T11:05:17.808Z,95459.99
2018-05-23T11:07:46.246Z,95452.82
2018-05-23T11:10:14.730Z,95450.23
2018-05-23T11:12:43.233Z,95454.12
2018-05-23T11:15:11.988Z,95441.96
2018-05-23T11:17:40.451Z,95441.58
2018-05-23T11:20:09.405Z,95444.21
2018-05-23T11:22:37.913Z,95445.56
2018-05-23T11:25:06.320Z,95441.09
2018-05-23T11:27:34.787Z,95447.50
2018-05-23T11:30:03.236Z,95445.81
2018-05-23T11:32:32.275Z,95448.20
2018-05-23T11:35:00.887Z,95445.17
2018-05-23T11:37:29.637Z,95441.89
2018-05-23T11:39:58.089Z,95447.64
2018-05-23T11:42:26.573Z,95439.39
2018-05-23T11:44:55.014Z,95440.67
2018-05-23T11:47:23.625Z,95442.16
2018-05-23T11:49:52.061Z,95446.91
2018-05-23T11:52:33.442Z,95439.52
2018-05-23T11:55:02.804Z,95445.72
2018-05-23T11:57:31.307Z,95438.03
2018-05-23T11:59:59.951Z,95440.13
2018-05-23T12:02:28.643Z,95436.69
2018-05-23T12:04:57.160Z,95434.28
2018-05-23T12:07:25.838Z,95435.63
2018-05-23T12:09:54.414Z,95435.20
2018-05-23T12:12:23.253Z,95432.53
2018-05-23T12:14:51.734Z,95431.31
2018-05-23T12:17:20.217Z,95436.02
2018-05-23T12:19:48.703Z,95428.67
2018-05-23T12:22:17.319Z,95432.66
2018-05-23T12:24:45.863Z,95426.00
2018-05-23T12:27:14.598Z,95424.84
2018-05-23T12:29:43.474Z,95429.27
2018-05-23T12:32:12.013Z,95428.17
2018-05-23T12:34:40.639Z,95427.77
2018-05-23T12:37:10.550Z,95426.03
2018-05-23T12:39:39.981Z,95417.07
2018-05-23T12:42:08.656Z,95418.17
2018-05-23T12:44:38.123Z,95413.84
2018-05-23T12:47:06.586Z,95422.23
2018-05-23T12:49:35.156Z,95420.07
2018-05-23T12:52:03.651Z,95417.11
2018-05-23T12:54:32.196Z,95416.20
2018-05-23T12:57:00.667Z,95407.75
2018-05-23T12:59:29.156Z,95413.85
2018-05-23T13:01:57.555Z,95419.16
2018-05-23T13:04:26.200Z,95410.03
2018-05-23T13:06:55.123Z,95418.11
2018-05-23T13:09:23.743Z,95409.31
2018-05-23T13:11:53.013Z,95413.81
2018-05-23T13:14:22.011Z,95403.02
2018-05-23T13:16:50.559Z,95401.31
2018-05-23T13:19:19.109Z,95410.98
2018-05-23T13:21:47.643Z,95413.02
2018-05-23T13:24:16.090Z,95410.27
2018-05-23T13:26:44.566Z,95415.91
2018-05-23T13:29:13.009Z,95399.22
2018-05-23T13:31:41.652Z,95402.28
2018-05-23T13:34:10.083Z,95410.88
2018-05-23T13:36:38.528Z,95400.08
2018-05-23T13:39:07.030Z,95397.33
2018-05-23T13:41:35.495Z,95400.53
2018-05-23T13:44:04.090Z,95397.02
2018-05-23T13:46:32.521Z,95397.41
2018-05-23T13:49:01.025Z,95399.13
2018-05-23T13:51:29.457Z,95399.80
2018-05-23T13:53:58.047Z,95400.88
2018-05-23T13:56:26.569Z,95395.08
2018-05-23T13:58:54.985Z,95384.69
2018-05-23T14:01:23.496Z,95388.48
2018-05-23T14:03:51.965Z,95389.16
2018-05-23T14:06:20.424Z,95390.31
2018-05-23T14:08:49.145Z,95394.59
2018-05-23T14:11:17.691Z,95399.34
2018-05-23T14:13:46.659Z,95393.51
2018-05-23T14:16:15.345Z,95390.80
2018-05-23T14:18:44.548Z,95386.05
2018-05-23T14:21:13.352Z,95388.09
2018-05-23T14:23:41.758Z,95396.65
2018-05-23T14:26:10.425Z,95396.44
2018-05-23T14:28:38.842Z,95389.61
2018-05-23T14:31:07.389Z,95399.46
2018-05-23T14:33:36.353Z,95383.67
2018-05-23T14:36:05.334Z,95383.98
2018-05-23T14:38:33.975Z,95388.17
2018-05-23T14:41:03.595Z,95383.91
2018-05-23T14:43:32.610Z,95382.81
2018-05-23T14:46:01.332Z,95384.11
2018-05-23T14:48:30.005Z,95388.19
2018-05-23T14:50:58.538Z,95376.48
2018-05-23T14:53:27.051Z,95380.67
2018-05-23T14:55:56.658Z,95382.51
2018-05-23T14:58:25.488Z,95388.81
2018-05-23T15:00:54.103Z,95390.80
2018-05-23T15:03:22.676Z,95389.74
2018-05-23T15:05:51.450Z,95390.42
2018-05-23T15:08:20.331Z,95393.36
2018-05-23T15:10:49.040Z,95384.42
2018-05-23T15:13:17.599Z,95376.63
2018-05-23T15:15:46.507Z,95380.20
2018-05-23T15:18:15.271Z,95378.65
2018-05-23T15:20:44.323Z,95379.97
2018-05-23T15:23:12.830Z,95383.50
2018-05-23T15:25:41.433Z,95384.34
2018-05-23T15:28:10.077Z,95383.30
2018-05-23T15:30:38.818Z,95387.05
2018-05-23T15:33:07.863Z,95382.62
2018-05-23T15:35:36.571Z,95385.48
2018-05-23T15:38:05.874Z,95381.17
2018-05-23T15:40:34.705Z,95375.48
2018-05-23T15:43:03.465Z,95380.00
2018-05-23T15:45:32.427Z,95384.64
2018-05-23T15:48:00.908Z,95385.16
2018-05-23T15:50:29.549Z,95387.34
2018-05-23T15:52:58.161Z,95389.44
2018-05-23T15:55:27.336Z,95388.69
2018-05-23T15:57:55.995Z,95394.91
2018-05-23T16:00:24.471Z,95396.42
2018-05-23T16:02:53.056Z,95392.50
2018-05-23T16:05:21.385Z,95390.55
2018-05-23T16:07:49.933Z,95390.80
2018-05-23T16:10:18.430Z,95389.29
2018-05-23T16:12:46.878Z,95391.27
2018-05-23T16:15:15.328Z,95390.19
2018-05-23T16:17:43.773Z,95395.00
2018-05-23T16:20:12.338Z,95385.24
2018-05-23T16:22:40.930Z,95387.45
2018-05-23T16:25:09.311Z,95379.34
2018-05-23T16:27:37.818Z,95396.33
2018-05-23T16:30:06.169Z,95387.84
2018-05-23T16:32:34.734Z,95387.98
2018-05-23T16:35:03.298Z,95393.44
2018-05-23T16:37:31.801Z,95395.95
2018-05-23T16:40:00.317Z,95404.84
2018-05-23T16:42:29.169Z,95403.80
2018-05-23T16:44:58.804Z,95395.48
2018-05-23T16:47:27.207Z,95404.27
2018-05-23T16:49:55.593Z,95398.22
2018-05-23T16:52:24.022Z,95395.18
2018-05-23T16:54:52.478Z,95398.48
2018-05-23T16:57:21.078Z,95395.48
2018-05-23T16:59:49.560Z,95397.64
2018-05-23T17:02:18.123Z,95399.57
2018-05-23T17:04:46.617Z,95399.08
2018-05-23T17:07:15.064Z,95392.61
2018-05-23T17:09:43.540Z,95393.20
2018-05-23T17:12:12.136Z,95398.22
2018-05-23T17:14:41.395Z,95398.69
2018-05-23T17:17:10.098Z,95398.06
2018-05-23T17:19:38.566Z,95396.83
2018-05-23T17:22:07.178Z,95404.30
2018-05-23T17:24:35.776Z,95405.91
2018-05-23T17:27:04.272Z,95402.84
2018-05-23T17:29:33.361Z,95411.81
2018-05-23T17:32:02.052Z,95409.88
2018-05-23T17:34:30.500Z,95398.86
2018-05-23T17:36:58.958Z,95395.94
2018-05-23T17:39:27.484Z,95404.64
2018-05-23T17:41:56.807Z,95407.85
2018-05-23T17:44:25.551Z,95406.03
2018-05-23T17:46:53.963Z,95406.65
2018-05-23T17:49:22.458Z,95406.47
2018-05-23T17:51:50.933Z,95405.81
2018-05-23T17:54:19.581Z,95410.70
2018-05-23T17:56:48.076Z,95409.85
2018-05-23T17:59:17.390Z,95408.88
2018-05-23T18:01:45.850Z,95406.39
2018-05-23T18:04:15.268Z,95411.09
2018-05-23T18:06:43.990Z,95407.72
2018-05-23T18:09:12.565Z,95422.06
2018-05-23T18:11:41.328Z,95428.66
2018-05-23T18:14:09.750Z,95422.92
2018-05-23T18:16:38.314Z,95422.13
2018-05-23T18:19:07.120Z,95425.29
2018-05-23T18:21:35.693Z,95434.23
2018-05-23T18:24:04.630Z,95428.54
2018-05-23T18:26:33.178Z,95436.39
2018-05-23T18:29:01.667Z,95436.73
2018-05-23T18:31:30.325Z,95439.86
2018-05-23T18:33:59.340Z,95440.27
2018-05-23T18:36:27.999Z,95438.48
2018-05-23T18:38:56.656Z,95443.91
2018-05-23T18:41:25.393Z,95448.09
2018-05-23T18:43:55.218Z,95448.57
2018-05-23T18:46:24.422Z,95451.32
2018-05-23T18:48:53.608Z,95450.17
2018-05-23T18:51:22.612Z,95460.51
2018-05-23T18:53:51.202Z,95449.98
2018-05-23T18:56:19.632Z,95459.16
2018-05-23T18:58:48.112Z,95452.82
2018-05-23T19:01:16.896Z,95455.36
2018-05-23T19:03:45.877Z,95455.55
2018-05-23T19:06:14.696Z,95459.01
2018-05-23T19:08:43.608Z,95460.59
2018-05-23T19:11:12.767Z,95459.09
2018-05-23T19:13:41.272Z,95458.58
2018-05-23T19:16:10.490Z,95456.84
2018-05-23T19:18:39.039Z,95462.02
2018-05-23T19:21:07.403Z,95455.66
2018-05-23T19:23:36.145Z,95460.38
2018-05-23T19:28:50.959Z,95472.09
2018-05-23T19:31:19.612Z,95475.23
2018-05-23T19:33:48.444Z,95475.38
2018-05-23T19:36:16.936Z,95474.84
2018-05-23T19:38:45.451Z,95476.47
2018-05-23T19:41:13.836Z,95484.12
2018-05-23T19:43:42.330Z,95480.41
2018-05-23T19:46:10.750Z,95480.33
2018-05-23T19:48:39.137Z,95483.89
2018-05-23T19:51:07.557Z,95486.25
2018-05-23T19:53:36.109Z,95487.28
2018-05-23T19:56:04.567Z,95491.02
2018-05-23T19:58:32.963Z,95488.25
2018-05-23T20:01:02.289Z,95482.78
2018-05-23T20:03:31.192Z,95489.14
2018-05-23T20:05:59.644Z,95491.04
2018-05-23T20:08:28.099Z,95493.41
2018-05-23T20:10:56.567Z,95495.61
2018-05-23T20:13:25.445Z,95505.56
2018-05-23T20:15:53.993Z,95504.02
2018-05-23T20:18:22.555Z,95504.61
2018-05-23T20:20:51.208Z,95499.11
2018-05-23T20:23:20.335Z,95500.59
2018-05-23T20:25:48.808Z,95510.63
2018-05-23T20:28:17.250Z,95502.69
2018-05-23T20:30:45.648Z,95508.69
2018-05-23T20:33:14.030Z,95510.77
2018-05-23T20:35:43.309Z,95510.67
2018-05-23T20:38:11.885Z,95521.04
2018-05-23T20:40:40.246Z,95514.95
2018-05-23T20:43:08.715Z,95520.47
2018-05-23T20:45:37.078Z,95517.20
2018-05-23T20:48:05.441Z,95523.99
2018-05-23T20:50:33.884Z,95521.49
2018-05-23T20:53:02.273Z,95526.25
2018-05-23T20:55:30.718Z,95528.03
2018-05-23T20:57:59.144Z,95526.73
2018-05-23T21:00:27.561Z,95523.67
2018-05-23T21:02:55.975Z,95523.88
2018-05-23T21:05:24.544Z,95525.53
2018-05-23T21:07:52.801Z,95521.64
2018-05-23T21:10:21.177Z,95523.45
2018-05-23T21:12:49.547Z,95525.12
2018-05-23T21:15:17.990Z,95518.93
2018-05-23T21:17:46.371Z,95521.00
2018-05-23T21:20:14.743Z,95523.05
2018-05-23T21:22:43.107Z,95527.03
2018-05-23T21:25:11.619Z,95519.73
2018-05-23T21:27:39.973Z,95525.47
2018-05-23T21:30:08.572Z,95516.66
2018-05-23T21:32:37.062Z,95519.63
2018-05-23T21:35:05.416Z,95509.97
2018-05-23T21:37:33.893Z,95515.40
2018-05-23T21:40:02.272Z,95509.11
2018-05-23T21:42:30.678Z,95506.22
2018-05-23T21:44:59.091Z,95495.05
2018-05-23T21:47:27.465Z,95498.89
2018-05-23T21:49:55.836Z,95495.53
2018-05-23T21:52:24.372Z,95504.28
2018-05-23T21:54:52.881Z,95501.98
2018-05-23T21:57:21.242Z,95504.08
2018-05-23T21:59:49.662Z,95503.17
2018-05-23T22:02:18.032Z,95496.09
2018-05-23T22:04:46.453Z,95498.26
2018-05-23T22:07:14.861Z,95499.55
2018-05-23T22:09:43.230Z,95493.57
2018-05-23T22:12:11.606Z,95504.58
2018-05-23T22:14:39.956Z,95500.35
2018-05-23T22:17:08.296Z,95500.25
2018-05-23T22:19:36.690Z,95496.96
2018-05-23T22:22:05.033Z,95500.34
2018-05-23T22:24:33.431Z,95497.59
2018-05-23T22:27:01.813Z,95501.24
2018-05-23T22:29:30.246Z,95492.76
2018-05-23T22:31:58.699Z,95494.50
2018-05-23T22:34:27.104Z,95490.05
2018-05-23T22:36:55.606Z,95485.47
2018-05-23T22:39:23.975Z,95483.48
2018-05-23T22:41:52.359Z,95482.56
2018-05-23T22:44:20.769Z,95480.36
2018-05-23T22:46:49.134Z,95477.66
2018-05-23T22:49:17.560Z,95482.32
2018-05-23T22:51:45.921Z,95483.34
2018-05-23T22:54:14.300Z,95481.86
2018-05-23T22:56:42.634Z,95486.05
2018-05-23T22:59:11.028Z,95484.12
2018-05-23T23:01:39.470Z,95484.61
2018-05-23T23:04:07.837Z,95485.39
2018-05-23T23:06:36.225Z,95483.99
2018-05-23T23:09:04.586Z,95487.91
2018-05-23T23:11:32.947Z,95485.02
2018-05-23T23:14:01.351Z,95484.80
2018-05-23T23:16:29.735Z,95481.50
2018-05-23T23:18:58.167Z,95475.19
2018-05-23T23:21:26.464Z,95479.47
2018-05-23T23:23:54.806Z,95480.09
2018-05-23T23:26:23.239Z,95477.00
2018-05-23T23:28:51.617Z,95478.63
2018-05-23T23:31:19.957Z,95484.70
2018-05-23T23:33:48.293Z,95491.09
2018-05-23T23:36:16.734Z,95479.70
2018-05-23T23:38:45.192Z,95480.07
2018-05-23T23:41:13.590Z,95484.39
2018-05-23T23:43:41.960Z,95481.61
2018-05-23T23:46:10.322Z,95483.41
2018-05-23T23:48:38.684Z,95482.01
2018-05-23T23:51:07.037Z,95481.45
2018-05-23T23:53:35.380Z,95485.55
2018-05-23T23:56:03.740Z,95481.08
2018-05-23T23:58:32.138Z,95480.05
